Time;durP1;ratioP1;P1;durP2;ratioP2;P2;SDS_P1;SDS_P2;PMS_P1;PMS_P2;Temp;Humidity;BMP_temperature;BMP_pressure;BME280_temperature;BME280_humidity;BME280_pressure;Samples;Min_cycle;Max_cycle;Signal;HPM_P1;HPM_P2
2023/07/15 06:05:43;;;;;;;20.27;18.77;;;33.50;99.90;;;;;;4933127;29;20099;-93
2023/07/15 06:08:11;;;;;;;21.02;19.40;;;35.00;99.90;;;;;;4919306;29;20036;-92
2023/07/15 06:10:42;;;;;;;21.27;19.42;;;34.80;99.90;;;;;;4935773;29;20056;-94
2023/07/15 06:13:10;;;;;;;22.52;20.05;;;34.10;99.90;;;;;;4928502;29;20051;-93
2023/07/15 13:52:12;;;;;;;25.48;23.63;;;34.60;99.90;;;;;;5048500;23;20065;31
2023/07/15 16:24:50;;;;;;;23.95;22.25;;;32.90;99.90;;;;;;4872351;29;20053;-93
2023/07/15 16:48:48;;;;;;;24.50;22.67;;;32.00;99.90;;;;;;4962906;29;20079;-93
2023/07/15 16:54:24;;;;;;;23.95;22.02;;;32.00;99.90;;;;;;5409873;23;20076;-94
2023/07/15 16:56:50;;;;;;;23.17;21.50;;;32.00;99.90;;;;;;4986674;28;20038;-92
2023/07/15 16:59:16;;;;;;;23.23;21.75;;;31.80;99.90;;;;;;4984373;28;20017;-94
2023/07/15 17:01:45;;;;;;;23.58;21.98;;;31.60;99.90;;;;;;4998631;28;20057;-94
2023/07/15 17:04:12;;;;;;;23.77;21.70;;;31.60;99.90;;;;;;4963326;28;20053;-93
2023/07/15 17:06:41;;;;;;;23.67;21.38;;;31.50;99.90;;;;;;4978479;28;20041;-94
2023/07/15 17:09:08;;;;;;;24.15;22.30;;;31.50;99.90;;;;;;4962980;28;20026;-94
2023/07/15 17:11:34;;;;;;;23.20;21.60;;;31.50;99.90;;;;;;4974774;28;20121;-94
2023/07/15 17:14:01;;;;;;;23.75;21.80;;;31.50;99.90;;;;;;4971790;28;20032;-94
2023/07/15 17:31:56;;;;;;;22.40;20.23;;;30.90;99.90;;;;;;5121622;23;20037;-92
2023/07/15 17:34:26;;;;;;;22.00;20.30;;;30.80;99.90;;;;;;5012844;28;20081;-93
2023/07/15 17:36:52;;;;;;;23.00;21.20;;;30.70;99.90;;;;;;5001628;28;20033;-93
2023/07/15 17:39:19;;;;;;;24.05;21.73;;;30.70;99.90;;;;;;5000037;28;20383;-95
2023/07/15 17:41:45;;;;;;;24.30;22.00;;;30.70;99.90;;;;;;4999323;28;20022;-92
2023/07/15 17:44:12;;;;;;;23.77;21.55;;;30.70;99.90;;;;;;5018612;28;20025;-93
2023/07/15 17:46:39;;;;;;;24.02;21.80;;;30.60;99.90;;;;;;5002436;28;20029;-92
2023/07/15 17:49:07;;;;;;;22.98;20.83;;;30.50;99.90;;;;;;4976607;28;20117;-91
2023/07/15 17:51:35;;;;;;;24.45;22.15;;;30.50;99.90;;;;;;4989377;28;20033;-94
2023/07/15 17:54:09;;;;;;;22.38;20.67;;;30.50;99.90;;;;;;5005730;28;20026;-93
2023/07/15 17:56:36;;;;;;;23.60;21.58;;;30.40;99.90;;;;;;5002674;28;20033;-92
2023/07/15 17:59:05;;;;;;;22.15;20.52;;;30.30;99.90;;;;;;5017830;28;20044;-93
2023/07/15 18:01:32;;;;;;;22.50;20.70;;;30.30;99.90;;;;;;5014603;28;20506;-92
2023/07/15 18:03:58;;;;;;;23.23;20.92;;;30.20;99.90;;;;;;4996003;28;20030;-92
2023/07/15 18:06:25;;;;;;;21.38;19.73;;;30.10;99.90;;;;;;4998162;28;20040;-93
2023/07/15 18:08:51;;;;;;;22.15;20.23;;;30.10;99.90;;;;;;4991696;28;20022;-93
2023/07/15 18:11:17;;;;;;;23.65;21.63;;;30.00;99.90;;;;;;5001671;28;20456;-93
2023/07/15 18:13:44;;;;;;;23.35;21.00;;;30.00;99.90;;;;;;5004850;28;20033;-94
2023/07/15 18:16:11;;;;;;;21.30;19.65;;;29.90;99.90;;;;;;5004551;28;20034;-93
2023/07/15 18:18:37;;;;;;;21.73;19.83;;;29.80;99.90;;;;;;4987351;28;20049;-93
2023/07/15 18:21:04;;;;;;;20.90;19.17;;;29.80;99.90;;;;;;5019087;28;20038;-92
2023/07/15 18:23:36;;;;;;;19.77;18.48;;;29.80;99.90;;;;;;5004157;28;20109;-93
2023/07/15 18:26:03;;;;;;;20.73;19.05;;;29.80;99.90;;;;;;4999106;28;20139;-92
2023/07/15 18:28:29;;;;;;;19.90;18.42;;;29.70;99.90;;;;;;4995809;28;20022;-94
2023/07/15 18:30:55;;;;;;;20.52;18.90;;;29.60;99.90;;;;;;5023366;28;20057;-92
2023/07/15 18:33:22;;;;;;;20.65;19.25;;;29.60;99.90;;;;;;5011157;28;20057;-91
2023/07/15 18:35:56;;;;;;;19.77;18.42;;;29.60;99.90;;;;;;4998706;23;20150;-93
2023/07/15 18:38:22;;;;;;;20.27;18.83;;;29.50;99.90;;;;;;4964640;28;20026;-93
2023/07/15 18:40:49;;;;;;;21.48;19.45;;;29.50;99.90;;;;;;4959693;28;20042;-92
2023/07/15 18:43:20;;;;;;;20.98;19.40;;;29.40;99.90;;;;;;4944703;29;20425;-95
2023/07/15 18:46:16;;;;;;;21.38;19.70;;;29.40;99.90;;;;;;4948153;28;20066;-93
2023/07/15 18:54:24;;;;;;;20.25;18.75;;;29.30;99.90;;;;;;4954393;28;20099;-93
2023/07/15 18:56:52;;;;;;;20.45;18.90;;;29.30;99.90;;;;;;4926877;29;20042;-93
2023/07/15 18:59:19;;;;;;;21.92;20.00;;;29.40;99.90;;;;;;4927513;29;20118;-93
2023/07/15 19:01:45;;;;;;;20.90;19.08;;;29.40;99.90;;;;;;4942583;29;20031;-92
2023/07/15 19:04:12;;;;;;;20.20;18.52;;;29.30;99.90;;;;;;4926420;29;20039;-93
2023/07/15 19:06:38;;;;;;;20.08;18.35;;;29.30;99.90;;;;;;4943350;29;20118;-80
2023/07/15 19:09:07;;;;;;;20.70;18.98;;;29.40;99.90;;;;;;4950891;23;20495;-89
2023/07/15 19:11:34;;;;;;;20.58;18.63;;;29.30;99.90;;;;;;4968449;28;20037;-87
2023/07/15 19:14:01;;;;;;;20.38;18.92;;;29.20;99.90;;;;;;4948922;28;20083;-87
2023/07/15 19:16:32;;;;;;;20.55;18.77;;;29.10;99.90;;;;;;4962880;28;20477;-94
2023/07/15 22:42:44;;;;;;;18.60;10.32;;;26.50;99.90;;;;;;5699404;23;20084;-95
